Time;durP1;ratioP1;P1;durP2;ratioP2;P2;SDS_P1;SDS_P2;PMS_P1;PMS_P2;Temp;Humidity;BMP_temperature;BMP_pressure;BME280_temperature;BME280_humidity;BME280_pressure;Samples;Min_cycle;Max_cycle;Signal;HPM_P1;HPM_P2
2023/10/28 00:00:37;;;;;;;;;;;;;;;;;;4999395;28;19910;-74
2023/10/28 00:03:03;;;;;;;;;;;;;;;;;;4992516;28;19917;-74
2023/10/28 00:05:28;;;;;;;;;;;;;;;;;;5000350;28;19917;-75
2023/10/28 00:07:54;;;;;;;;;;;;;;;;;;4967412;28;20276;-74
2023/10/28 00:10:21;;;;;;;;;;;;;;;;;;4967758;28;19913;-75
2023/10/28 00:12:46;;;;;;;;;;;;;;;;;;4998823;28;19924;-76
2023/10/28 00:15:13;;;;;;;;;;;;;;;;;;4982031;28;20012;-75
2023/10/28 00:17:39;;;;;;;;;;;;;;;;;;4979351;28;19964;-75
2023/10/28 00:20:05;;;;;;;;;;;;;;;;;;4979715;28;20000;-74
2023/10/28 00:22:32;;;;;;;;;;;;;;;;;;4977067;28;19914;-75
2023/10/28 00:24:58;;;;;;;;;;;;;;;;;;4979640;28;19918;-75
2023/10/28 00:27:24;;;;;;;;;;;;;;;;;;4995819;28;19951;-74
2023/10/28 00:29:52;;;;;;;;;;;;;;;;;;4979175;28;19922;-75
2023/10/28 00:32:17;;;;;;;;;;;;;;;;;;4997173;28;19980;-76
2023/10/28 00:34:43;;;;;;;;;;;;;;;;;;4992950;28;19960;-76
2023/10/28 00:37:08;;;;;;;;;;;;;;;;;;4996849;28;19917;-75
2023/10/28 00:39:34;;;;;;;;;;;;;;;;;;4962637;28;19952;-75
2023/10/28 00:42:01;;;;;;;;;;;;;;;;;;4979037;28;19984;-73
2023/10/28 00:44:32;;;;;;;;;;;;;;;;;;4993429;28;19932;-74
2023/10/28 00:46:58;;;;;;;;;;;;;;;;;;4995335;28;19914;-75
2023/10/28 00:49:23;;;;;;;;;;;;;;;;;;4994831;28;19979;-74
2023/10/28 00:51:49;;;;;;;;;;;;;;;;;;4959346;28;20388;-75
2023/10/28 00:54:14;;;;;;;;;;;;;;;;;;4978367;28;19914;-75
2023/10/28 00:56:39;;;;;;;;;;;;;;;;;;4995238;28;19925;-73
2023/10/28 00:59:05;;;;;;;;;;;;;;;;;;4996017;28;19949;-76
2023/10/28 01:01:31;;;;;;;;;;;;;;;;;;4995882;28;19924;-74
2023/10/28 01:03:57;;;;;;;;;;;;;;;;;;4995537;28;19993;-75
2023/10/28 01:06:23;;;;;;;;;;;;;;;;;;4994165;28;19980;-75
2023/10/28 01:08:48;;;;;;;;;;;;;;;;;;4993633;28;19914;-74
2023/10/28 01:11:14;;;;;;;;;;;;;;;;;;4988954;28;19910;-75
2023/10/28 01:13:40;;;;;;;;;;;;;;;;;;4961877;28;19941;-74
2023/10/28 01:16:08;;;;;;;;;;;;;;;;;;4978508;28;20000;-74
2023/10/28 01:18:35;;;;;;;;;;;;;;;;;;4995827;28;20260;-74
2023/10/28 01:21:02;;;;;;;;;;;;;;;;;;4977457;28;19914;-74
2023/10/28 01:23:28;;;;;;;;;;;;;;;;;;4991831;28;19961;-75
2023/10/28 01:25:53;;;;;;;;;;;;;;;;;;4975337;28;20277;-75
2023/10/28 01:28:18;;;;;;;;;;;;;;;;;;4989546;28;20012;-74
2023/10/28 01:30:45;;;;;;;;;;;;;;;;;;4976405;28;19925;-74
2023/10/28 01:33:10;;;;;;;;;;;;;;;;;;4976923;28;19918;-74
2023/10/28 01:35:35;;;;;;;;;;;;;;;;;;4976234;28;19918;-75
2023/10/28 01:38:03;;;;;;;;;;;;;;;;;;4976317;28;20316;-74
2023/10/28 01:40:30;;;;;;;;;;;;;;;;;;4992633;28;19914;-75
2023/10/28 01:42:55;;;;;;;;;;;;;;;;;;4980832;28;20262;-75
2023/10/28 01:45:21;;;;;;;;;;;;;;;;;;4994481;28;20008;-75
2023/10/28 01:47:47;;;;;;;;;;;;;;;;;;4996819;28;19953;-76
2023/10/28 01:50:13;;;;;;;;;;;;;;;;;;4995952;28;19925;-74
2023/10/28 01:52:38;;;;;;;;;;;;;;;;;;4962805;28;19918;-75
2023/10/28 01:55:04;;;;;;;;;;;;;;;;;;4997286;28;19953;-75
2023/10/28 01:57:30;;;;;;;;;;;;;;;;;;4996464;28;19922;-75
2023/10/28 01:59:57;;;;;;;;;;;;;;;;;;4993515;28;19922;-74
2023/10/28 02:02:23;;;;;;;;;;;;;;;;;;4992634;28;19917;-74
2023/10/28 02:04:48;;;;;;;;;;;;;;;;;;4997474;28;19969;-75
2023/10/28 02:07:14;;;;;;;;;;;;;;;;;;4995630;28;19965;-74
2023/10/28 02:09:39;;;;;;;;;;;;;;;;;;4998504;28;20332;-74
2023/10/28 02:12:06;;;;;;;;;;;;;;;;;;4982987;28;19922;-75
2023/10/28 02:14:32;;;;;;;;;;;;;;;;;;4984156;28;19953;-74
2023/10/28 02:16:59;;;;;;;;;;;;;;;;;;4996605;28;19914;-75
2023/10/28 02:19:24;;;;;;;;;;;;;;;;;;4983992;28;19918;-76
2023/10/28 02:21:50;;;;;;;;;;;;;;;;;;4999290;28;19910;-75
2023/10/28 02:24:19;;;;;;;;;;;;;;;;;;4964862;28;19918;-75
2023/10/28 02:26:44;;;;;;;;;;;;;;;;;;4981805;28;19922;-75
2023/10/28 02:29:10;;;;;;;;;;;;;;;;;;4999422;28;19916;-74
2023/10/28 02:31:38;;;;;;;;;;;;;;;;;;4981743;28;19921;-75
2023/10/28 02:34:03;;;;;;;;;;;;;;;;;;4996614;28;19918;-75
2023/10/28 02:36:29;;;;;;;;;;;;;;;;;;4979242;28;19921;-75
2023/10/28 02:38:54;;;;;;;;;;;;;;;;;;4999063;28;19914;-75
2023/10/28 02:41:22;;;;;;;;;;;;;;;;;;4997013;28;19918;-74
2023/10/28 02:43:47;;;;;;;;;;;;;;;;;;4996323;28;19921;-75
2023/10/28 02:46:13;;;;;;;;;;;;;;;;;;4981065;28;19925;-74
2023/10/28 02:48:39;;;;;;;;;;;;;;;;;;4981230;28;19910;-74
2023/10/28 02:51:04;;;;;;;;;;;;;;;;;;4997894;28;19961;-76
2023/10/28 02:53:30;;;;;;;;;;;;;;;;;;4972201;28;19921;-75
2023/10/28 02:55:55;;;;;;;;;;;;;;;;;;4979934;28;19914;-74
2023/10/28 02:58:23;;;;;;;;;;;;;;;;;;4993927;28;19945;-73
2023/10/28 03:00:49;;;;;;;;;;;;;;;;;;4977241;28;19914;-75
2023/10/28 03:03:14;;;;;;;;;;;;;;;;;;4994106;28;19910;-74
2023/10/28 03:05:40;;;;;;;;;;;;;;;;;;4994494;28;19914;-74
2023/10/28 03:08:06;;;;;;;;;;;;;;;;;;4979305;28;19918;-75
2023/10/28 03:10:31;;;;;;;;;;;;;;;;;;4981912;28;19913;-74
2023/10/28 03:12:57;;;;;;;;;;;;;;;;;;4996703;28;19917;-74
2023/10/28 03:15:24;;;;;;;;;;;;;;;;;;4980010;28;20399;-74
2023/10/28 03:17:50;;;;;;;;;;;;;;;;;;4996578;28;19992;-74
2023/10/28 03:20:19;;;;;;;;;;;;;;;;;;4997052;28;19952;-74
2023/10/28 03:22:47;;;;;;;;;;;;;;;;;;4998584;28;20341;-75
2023/10/28 03:25:15;;;;;;;;;;;;;;;;;;4997321;28;19921;-74
2023/10/28 03:27:45;;;;;;;;;;;;;;;;;;4988374;28;19914;-75
2023/10/28 03:30:11;;;;;;;;;;;;;;;;;;5011240;28;19914;-75
2023/10/28 03:32:42;;;;;;;;;;;;;;;;;;4993902;28;19918;-74
2023/10/28 03:35:08;;;;;;;;;;;;;;;;;;4977253;28;19914;-75
2023/10/28 03:37:35;;;;;;;;;;;;;;;;;;4978498;28;20393;-75
2023/10/28 03:40:01;;;;;;;;;;;;;;;;;;4993792;28;19925;-73
2023/10/28 03:42:30;;;;;;;;;;;;;;;;;;4978737;28;19921;-74
2023/10/28 03:44:56;;;;;;;;;;;;;;;;;;4977952;28;19918;-75
2023/10/28 03:47:24;;;;;;;;;;;;;;;;;;4996502;28;20373;-74
2023/10/28 03:49:50;;;;;;;;;;;;;;;;;;4998141;28;19910;-75
2023/10/28 03:52:15;;;;;;;;;;;;;;;;;;4997658;28;19924;-75
2023/10/28 03:54:41;;;;;;;;;;;;;;;;;;4997694;28;20332;-74
2023/10/28 03:57:06;;;;;;;;;;;;;;;;;;4998862;28;19914;-75
2023/10/28 03:59:33;;;;;;;;;;;;;;;;;;4996511;28;19917;-74
2023/10/28 04:01:58;;;;;;;;;;;;;;;;;;4994253;28;19921;-75
2023/10/28 04:04:27;;;;;;;;;;;;;;;;;;4997423;28;19935;-74
2023/10/28 04:06:55;;;;;;;;;;;;;;;;;;5011874;28;20385;-75
2023/10/28 04:09:20;;;;;;;;;;;;;;;;;;5014720;28;19936;-75
2023/10/28 04:11:46;;;;;;;;;;;;;;;;;;4981358;28;20417;-75
2023/10/28 04:14:11;;;;;;;;;;;;;;;;;;4996360;28;19949;-76
2023/10/28 04:16:37;;;;;;;;;;;;;;;;;;4996842;28;19944;-75
2023/10/28 04:19:02;;;;;;;;;;;;;;;;;;4993602;28;20384;-77
2023/10/28 04:21:29;;;;;;;;;;;;;;;;;;4997513;28;19913;-75
2023/10/28 04:23:54;;;;;;;;;;;;;;;;;;4980478;28;19918;-74
2023/10/28 04:26:20;;;;;;;;;;;;;;;;;;4997988;28;19937;-75
2023/10/28 04:28:45;;;;;;;;;;;;;;;;;;4980475;28;19997;-75
2023/10/28 04:31:15;;;;;;;;;;;;;;;;;;4979966;28;19913;-73
2023/10/28 04:33:40;;;;;;;;;;;;;;;;;;4998356;28;19925;-75
2023/10/28 04:36:06;;;;;;;;;;;;;;;;;;4995418;28;19914;-75
2023/10/28 04:38:36;;;;;;;;;;;;;;;;;;4995820;28;19914;-75
2023/10/28 04:41:02;;;;;;;;;;;;;;;;;;4998175;28;20028;-75
2023/10/28 04:43:29;;;;;;;;;;;;;;;;;;4997187;28;20401;-76
2023/10/28 04:45:54;;;;;;;;;;;;;;;;;;4995160;28;20375;-74
2023/10/28 04:48:27;;;;;;;;;;;;;;;;;;4994889;28;19913;-75
2023/10/28 04:50:52;;;;;;;;;;;;;;;;;;5010781;28;19921;-75
2023/10/28 04:53:17;;;;;;;;;;;;;;;;;;4992985;28;19914;-73
2023/10/28 04:55:44;;;;;;;;;;;;;;;;;;4989904;28;20441;-73
2023/10/28 04:58:10;;;;;;;;;;;;;;;;;;4995431;28;19952;-74
2023/10/28 05:00:35;;;;;;;;;;;;;;;;;;4996853;28;19920;-75
2023/10/28 05:03:01;;;;;;;;;;;;;;;;;;4996823;28;20008;-74
2023/10/28 05:05:26;;;;;;;;;;;;;;;;;;4996251;28;20432;-74
2023/10/28 05:07:52;;;;;;;;;;;;;;;;;;4996664;28;19913;-74
2023/10/28 05:10:17;;;;;;;;;;;;;;;;;;4996309;28;19976;-75
2023/10/28 05:12:43;;;;;;;;;;;;;;;;;;4991033;28;19988;-76
2023/10/28 05:15:08;;;;;;;;;;;;;;;;;;4994659;28;19933;-75
2023/10/28 05:17:34;;;;;;;;;;;;;;;;;;4998886;28;20401;-75
2023/10/28 05:19:59;;;;;;;;;;;;;;;;;;5001258;28;19914;-77
2023/10/28 05:22:24;;;;;;;;;;;;;;;;;;5003454;28;19953;-76
2023/10/28 05:24:52;;;;;;;;;;;;;;;;;;5002835;28;20415;-74
2023/10/28 05:27:18;;;;;;;;;;;;;;;;;;4981920;28;19920;-74
2023/10/28 05:29:43;;;;;;;;;;;;;;;;;;4999649;28;20387;-73
2023/10/28 05:32:10;;;;;;;;;;;;;;;;;;4963422;28;19909;-73
2023/10/28 05:34:36;;;;;;;;;;;;;;;;;;4981761;28;19921;-74
2023/10/28 05:37:07;;;;;;;;;;;;;;;;;;4993900;28;19920;-73
2023/10/28 05:39:32;;;;;;;;;;;;;;;;;;4995916;28;19913;-73
2023/10/28 05:41:58;;;;;;;;;;;;;;;;;;4962858;28;19992;-74
2023/10/28 05:44:24;;;;;;;;;;;;;;;;;;4995772;28;19917;-73
2023/10/28 05:46:49;;;;;;;;;;;;;;;;;;4995926;28;19917;-74
2023/10/28 05:49:14;;;;;;;;;;;;;;;;;;5010713;28;19914;-73
2023/10/28 05:51:40;;;;;;;;;;;;;;;;;;5011515;28;19945;-74
2023/10/28 05:54:06;;;;;;;;;;;;;;;;;;4994671;28;20347;-74
2023/10/28 05:56:31;;;;;;;;;;;;;;;;;;4996156;28;19933;-74
2023/10/28 05:59:00;;;;;;;;;;;;;;;;;;4995982;28;19914;-74
2023/10/28 06:01:27;;;;;;;;;;;;;;;;;;4980185;28;19922;-74
2023/10/28 06:03:52;;;;;;;;;;;;;;;;;;4995866;28;19967;-73
2023/10/28 06:06:18;;;;;;;;;;;;;;;;;;5011298;28;20016;-74
2023/10/28 06:08:44;;;;;;;;;;;;;;;;;;4995150;28;19957;-75
2023/10/28 06:11:09;;;;;;;;;;;;;;;;;;4995016;28;19925;-75
2023/10/28 06:13:35;;;;;;;;;;;;;;;;;;4995826;28;19913;-74
2023/10/28 06:16:05;;;;;;;;;;;;;;;;;;4996456;28;19914;-74
2023/10/28 06:18:31;;;;;;;;;;;;;;;;;;4975072;28;19940;-74
2023/10/28 06:20:56;;;;;;;;;;;;;;;;;;4975830;28;20274;-72
2023/10/28 06:23:22;;;;;;;;;;;;;;;;;;4990682;28;19915;-73
2023/10/28 06:25:47;;;;;;;;;;;;;;;;;;4974335;28;19921;-73
2023/10/28 06:28:13;;;;;;;;;;;;;;;;;;4990360;28;20165;-73
2023/10/28 06:30:39;;;;;;;;;;;;;;;;;;4978393;28;19910;-73
2023/10/28 06:33:04;;;;;;;;;;;;;;;;;;5006462;28;20308;-73
2023/10/28 06:35:30;;;;;;;;;;;;;;;;;;4975306;28;19910;-73
2023/10/28 06:37:55;;;;;;;;;;;;;;;;;;4975473;28;19963;-73
2023/10/28 06:40:24;;;;;;;;;;;;;;;;;;4990137;28;20396;-74
2023/10/28 06:42:50;;;;;;;;;;;;;;;;;;4990188;28;20009;-74
2023/10/28 06:45:15;;;;;;;;;;;;;;;;;;4975146;28;20222;-74
2023/10/28 06:47:40;;;;;;;;;;;;;;;;;;4986474;28;20296;-75
2023/10/28 06:50:06;;;;;;;;;;;;;;;;;;4994953;28;19917;-75
2023/10/28 06:52:32;;;;;;;;;;;;;;;;;;4977501;28;19929;-74
2023/10/28 06:54:59;;;;;;;;;;;;;;;;;;4993424;28;20432;-74
2023/10/28 06:57:24;;;;;;;;;;;;;;;;;;4994616;28;19925;-74
2023/10/28 06:59:49;;;;;;;;;;;;;;;;;;4993518;28;19910;-74
2023/10/28 07:02:15;;;;;;;;;;;;;;;;;;4989725;28;19918;-74
2023/10/28 07:04:41;;;;;;;;;;;;;;;;;;4976347;28;19918;-74
2023/10/28 07:07:08;;;;;;;;;;;;;;;;;;4992849;28;19913;-74
2023/10/28 07:09:37;;;;;;;;;;;;;;;;;;4992733;28;20311;-74
2023/10/28 07:12:02;;;;;;;;;;;;;;;;;;4992829;28;19917;-74
2023/10/28 07:14:27;;;;;;;;;;;;;;;;;;4993417;28;19910;-75
2023/10/28 07:16:55;;;;;;;;;;;;;;;;;;4994054;28;19969;-74
2023/10/28 07:19:21;;;;;;;;;;;;;;;;;;4973696;28;20440;-74
2023/10/28 07:21:46;;;;;;;;;;;;;;;;;;4993515;28;19914;-74
2023/10/28 07:24:12;;;;;;;;;;;;;;;;;;4992345;28;19917;-74
2023/10/28 07:26:38;;;;;;;;;;;;;;;;;;4994313;28;19914;-74
2023/10/28 07:29:06;;;;;;;;;;;;;;;;;;4993221;28;19917;-74
2023/10/28 07:31:31;;;;;;;;;;;;;;;;;;4993423;28;20050;-74
2023/10/28 07:33:57;;;;;;;;;;;;;;;;;;4994342;28;19969;-75
2023/10/28 07:36:23;;;;;;;;;;;;;;;;;;4990187;28;19914;-75
2023/10/28 07:38:48;;;;;;;;;;;;;;;;;;5007484;28;19921;-74
2023/10/28 07:41:14;;;;;;;;;;;;;;;;;;4976710;28;19924;-74
2023/10/28 07:43:39;;;;;;;;;;;;;;;;;;4994196;28;20416;-74
2023/10/28 07:46:05;;;;;;;;;;;;;;;;;;4994084;28;19917;-75
2023/10/28 07:48:30;;;;;;;;;;;;;;;;;;4995405;28;19921;-73
2023/10/28 07:50:55;;;;;;;;;;;;;;;;;;4998685;28;19924;-75
2023/10/28 07:53:21;;;;;;;;;;;;;;;;;;5007990;28;19922;-74
2023/10/28 07:55:47;;;;;;;;;;;;;;;;;;4992000;28;19910;-75
2023/10/28 07:58:12;;;;;;;;;;;;;;;;;;4993208;28;20362;-75
2023/10/28 08:00:38;;;;;;;;;;;;;;;;;;4993821;28;20303;-76
2023/10/28 08:03:03;;;;;;;;;;;;;;;;;;4992287;28;20024;-80
2023/10/28 08:05:29;;;;;;;;;;;;;;;;;;5007000;28;19922;-81
2023/10/28 08:07:54;;;;;;;;;;;;;;;;;;5007165;28;19929;-78
2023/10/28 08:10:23;;;;;;;;;;;;;;;;;;5006207;28;19914;-79
2023/10/28 08:12:49;;;;;;;;;;;;;;;;;;4992506;28;19941;-81
2023/10/28 08:15:15;;;;;;;;;;;;;;;;;;5006085;28;19910;-82
2023/10/28 08:17:41;;;;;;;;;;;;;;;;;;4989781;28;19914;-79
2023/10/28 08:20:10;;;;;;;;;;;;;;;;;;5004697;28;19933;-80
2023/10/28 08:22:35;;;;;;;;;;;;;;;;;;4987859;28;19953;-82
2023/10/28 08:25:04;;;;;;;;;;;;;;;;;;5001620;28;19925;-75
2023/10/28 08:27:31;;;;;;;;;;;;;;;;;;4993813;28;20053;-75
2023/10/28 08:29:57;;;;;;;;;;;;;;;;;;4989649;28;19918;-76
2023/10/28 08:32:23;;;;;;;;;;;;;;;;;;4971208;28;19924;-75
2023/10/28 08:34:53;;;;;;;;;;;;;;;;;;4992111;28;21704;-76
2023/10/28 08:37:21;;;;;;;;;;;;;;;;;;4993299;28;19921;-75
2023/10/28 08:39:48;;;;;;;;;;;;;;;;;;4993635;28;19921;-75
2023/10/28 08:42:14;;;;;;;;;;;;;;;;;;4993618;28;19914;-76
2023/10/28 08:44:40;;;;;;;;;;;;;;;;;;4991423;28;20016;-76
2023/10/28 08:47:08;;;;;;;;;;;;;;;;;;4975600;28;19925;-75
2023/10/28 08:49:34;;;;;;;;;;;;;;;;;;4988321;28;19945;-75
2023/10/28 08:52:00;;;;;;;;;;;;;;;;;;4988149;28;19972;-75
2023/10/28 08:54:26;;;;;;;;;;;;;;;;;;5007285;28;19922;-75
2023/10/28 08:56:52;;;;;;;;;;;;;;;;;;4974503;28;19918;-74
2023/10/28 08:59:18;;;;;;;;;;;;;;;;;;4990951;28;20284;-74
2023/10/28 09:01:48;;;;;;;;;;;;;;;;;;4992509;28;19917;-74
2023/10/28 09:04:15;;;;;;;;;;;;;;;;;;4987994;28;19914;-75
2023/10/28 09:06:42;;;;;;;;;;;;;;;;;;4963758;28;19914;-74
2023/10/28 09:09:13;;;;;;;;;;;;;;;;;;5006704;28;19968;-75
2023/10/28 09:11:39;;;;;;;;;;;;;;;;;;4990749;28;19959;-75
2023/10/28 09:14:04;;;;;;;;;;;;;;;;;;4991803;28;19922;-74
2023/10/28 09:16:30;;;;;;;;;;;;;;;;;;4988440;28;19913;-75
2023/10/28 09:18:55;;;;;;;;;;;;;;;;;;4995982;28;20507;-74
2023/10/28 09:21:21;;;;;;;;;;;;;;;;;;4995750;28;19910;-75
2023/10/28 09:23:46;;;;;;;;;;;;;;;;;;5010761;28;19918;-75
2023/10/28 09:26:11;;;;;;;;;;;;;;;;;;5010203;28;19922;-74
2023/10/28 09:28:37;;;;;;;;;;;;;;;;;;5010176;28;19940;-74
2023/10/28 09:31:05;;;;;;;;;;;;;;;;;;4989349;28;19918;-74
2023/10/28 09:33:30;;;;;;;;;;;;;;;;;;5009807;28;19965;-75
2023/10/28 09:35:55;;;;;;;;;;;;;;;;;;4993668;28;19945;-73
2023/10/28 09:38:21;;;;;;;;;;;;;;;;;;4991995;28;20291;-73
2023/10/28 09:40:49;;;;;;;;;;;;;;;;;;4993804;28;19953;-73
2023/10/28 09:43:15;;;;;;;;;;;;;;;;;;4995652;28;19963;-74
2023/10/28 09:45:43;;;;;;;;;;;;;;;;;;4993903;28;19949;-74
2023/10/28 09:48:08;;;;;;;;;;;;;;;;;;4995762;28;20316;-74
2023/10/28 09:50:34;;;;;;;;;;;;;;;;;;4994559;28;19910;-74
2023/10/28 09:53:00;;;;;;;;;;;;;;;;;;4977994;28;19918;-74
2023/10/28 09:55:25;;;;;;;;;;;;;;;;;;4992027;28;19918;-74
2023/10/28 09:57:53;;;;;;;;;;;;;;;;;;4992252;28;19921;-75
2023/10/28 10:00:19;;;;;;;;;;;;;;;;;;4994062;28;20021;-73
2023/10/28 10:02:44;;;;;;;;;;;;;;;;;;4995703;28;20372;-75
2023/10/28 10:05:11;;;;;;;;;;;;;;;;;;4995555;28;19960;-74
2023/10/28 10:07:36;;;;;;;;;;;;;;;;;;4994419;28;19996;-73
2023/10/28 10:10:02;;;;;;;;;;;;;;;;;;4995331;28;19984;-73
2023/10/28 10:12:27;;;;;;;;;;;;;;;;;;4977312;28;19921;-76
2023/10/28 10:14:53;;;;;;;;;;;;;;;;;;4992405;28;19925;-76
2023/10/28 10:17:18;;;;;;;;;;;;;;;;;;4995343;28;19925;-74
2023/10/28 10:19:44;;;;;;;;;;;;;;;;;;4994989;28;19976;-74
2023/10/28 10:22:10;;;;;;;;;;;;;;;;;;4995371;28;19914;-76
2023/10/28 10:24:38;;;;;;;;;;;;;;;;;;4962444;28;19914;-73
2023/10/28 10:27:03;;;;;;;;;;;;;;;;;;4993806;28;19968;-74
2023/10/28 10:29:29;;;;;;;;;;;;;;;;;;4986951;28;19942;-75
2023/10/28 10:31:58;;;;;;;;;;;;;;;;;;5005294;28;20008;-75
2023/10/28 10:34:23;;;;;;;;;;;;;;;;;;5011291;28;20371;-74
2023/10/28 10:36:49;;;;;;;;;;;;;;;;;;4993700;28;20004;-75
2023/10/28 10:39:20;;;;;;;;;;;;;;;;;;4994631;28;20422;-73
2023/10/28 10:41:46;;;;;;;;;;;;;;;;;;4994742;28;19914;-75
2023/10/28 10:44:11;;;;;;;;;;;;;;;;;;4994017;28;19918;-73
2023/10/28 10:46:37;;;;;;;;;;;;;;;;;;5010153;28;19918;-74
2023/10/28 10:49:02;;;;;;;;;;;;;;;;;;4993563;28;19913;-73
2023/10/28 10:51:28;;;;;;;;;;;;;;;;;;4994485;28;20301;-74
2023/10/28 10:53:54;;;;;;;;;;;;;;;;;;4998088;28;19913;-74
2023/10/28 10:56:20;;;;;;;;;;;;;;;;;;5012713;28;19921;-74
2023/10/28 10:58:48;;;;;;;;;;;;;;;;;;4994796;28;19918;-74
2023/10/28 11:01:15;;;;;;;;;;;;;;;;;;4992291;28;19914;-74
2023/10/28 11:03:40;;;;;;;;;;;;;;;;;;4992485;28;20305;-75
2023/10/28 11:06:06;;;;;;;;;;;;;;;;;;4994440;28;19925;-74
2023/10/28 11:08:31;;;;;;;;;;;;;;;;;;4993311;28;20025;-74
2023/10/28 11:10:57;;;;;;;;;;;;;;;;;;4992865;28;20361;-74
2023/10/28 11:13:22;;;;;;;;;;;;;;;;;;4977000;28;19922;-74
2023/10/28 11:15:52;;;;;;;;;;;;;;;;;;4961313;28;19969;-74
2023/10/28 11:18:18;;;;;;;;;;;;;;;;;;4989199;28;19976;-74
2023/10/28 11:20:43;;;;;;;;;;;;;;;;;;4992780;28;20115;-74
2023/10/28 11:23:12;;;;;;;;;;;;;;;;;;4994221;28;20381;-73
2023/10/28 11:25:37;;;;;;;;;;;;;;;;;;4994002;28;19929;-74
2023/10/28 11:28:03;;;;;;;;;;;;;;;;;;4992847;28;19913;-74
2023/10/28 11:30:28;;;;;;;;;;;;;;;;;;4992700;28;20004;-74
2023/10/28 11:32:54;;;;;;;;;;;;;;;;;;4994188;28;19918;-74
2023/10/28 11:35:20;;;;;;;;;;;;;;;;;;4992583;28;19941;-74
2023/10/28 11:37:46;;;;;;;;;;;;;;;;;;4990457;28;19952;-74
2023/10/28 11:40:11;;;;;;;;;;;;;;;;;;4992357;28;20374;-74
2023/10/28 11:42:37;;;;;;;;;;;;;;;;;;4994132;28;20416;-74
2023/10/28 11:45:03;;;;;;;;;;;;;;;;;;5008943;28;19964;-74
2023/10/28 11:47:29;;;;;;;;;;;;;;;;;;4992778;28;20289;-74
2023/10/28 11:49:57;;;;;;;;;;;;;;;;;;4992806;28;19917;-75
2023/10/28 11:52:23;;;;;;;;;;;;;;;;;;5009314;28;20312;-74
2023/10/28 11:54:48;;;;;;;;;;;;;;;;;;5003897;28;19921;-74
2023/10/28 11:57:14;;;;;;;;;;;;;;;;;;4994274;28;19921;-74
2023/10/28 11:59:40;;;;;;;;;;;;;;;;;;4992946;28;19959;-74
2023/10/28 12:02:08;;;;;;;;;;;;;;;;;;4994304;28;19918;-74
2023/10/28 12:04:34;;;;;;;;;;;;;;;;;;4994261;28;19924;-74
2023/10/28 12:06:59;;;;;;;;;;;;;;;;;;4994334;28;19977;-74
2023/10/28 12:09:25;;;;;;;;;;;;;;;;;;4993191;28;20285;-73
2023/10/28 12:11:51;;;;;;;;;;;;;;;;;;4988895;28;19913;-74
2023/10/28 12:14:21;;;;;;;;;;;;;;;;;;4960284;28;19918;-74
2023/10/28 12:16:47;;;;;;;;;;;;;;;;;;4993296;28;19941;-74
2023/10/28 12:19:13;;;;;;;;;;;;;;;;;;4992941;28;19914;-74
2023/10/28 12:21:40;;;;;;;;;;;;;;;;;;4976480;28;19914;-73
2023/10/28 12:24:05;;;;;;;;;;;;;;;;;;4991737;28;20399;-73
2023/10/28 12:26:31;;;;;;;;;;;;;;;;;;4992045;28;19914;-74
2023/10/28 12:28:56;;;;;;;;;;;;;;;;;;4991171;28;20678;-74
2023/10/28 12:31:25;;;;;;;;;;;;;;;;;;4981017;28;20384;-74
2023/10/28 12:33:50;;;;;;;;;;;;;;;;;;4991397;28;19929;-74
2023/10/28 12:36:16;;;;;;;;;;;;;;;;;;5007876;28;19914;-75
2023/10/28 12:38:48;;;;;;;;;;;;;;;;;;4992240;28;19921;-75
2023/10/28 12:41:14;;;;;;;;;;;;;;;;;;4991551;28;19914;-74
2023/10/28 12:43:39;;;;;;;;;;;;;;;;;;4991706;28;20008;-74
2023/10/28 12:46:05;;;;;;;;;;;;;;;;;;4992424;28;19922;-75
2023/10/28 12:48:31;;;;;;;;;;;;;;;;;;4991245;28;19910;-74
2023/10/28 12:50:56;;;;;;;;;;;;;;;;;;5007756;28;19925;-74
2023/10/28 12:53:21;;;;;;;;;;;;;;;;;;5007507;28;19925;-74
2023/10/28 12:55:47;;;;;;;;;;;;;;;;;;4992599;28;19944;-74
2023/10/28 12:58:12;;;;;;;;;;;;;;;;;;4992426;28;19921;-75
2023/10/28 13:00:38;;;;;;;;;;;;;;;;;;5004662;28;19914;-74
2023/10/28 13:03:06;;;;;;;;;;;;;;;;;;4990597;28;19914;-74
2023/10/28 13:05:32;;;;;;;;;;;;;;;;;;4990623;28;19918;-74
2023/10/28 13:07:57;;;;;;;;;;;;;;;;;;4992428;28;20001;-74
2023/10/28 13:10:24;;;;;;;;;;;;;;;;;;5007488;28;20377;-74
2023/10/28 13:12:49;;;;;;;;;;;;;;;;;;4990316;28;19918;-74
2023/10/28 13:15:15;;;;;;;;;;;;;;;;;;4992504;28;19935;-74
2023/10/28 13:17:42;;;;;;;;;;;;;;;;;;4990261;28;19914;-74
2023/10/28 13:20:11;;;;;;;;;;;;;;;;;;4979973;28;19921;-74
2023/10/28 13:22:37;;;;;;;;;;;;;;;;;;4991022;28;19933;-74
2023/10/28 13:25:06;;;;;;;;;;;;;;;;;;4990655;28;20401;-74
2023/10/28 13:27:31;;;;;;;;;;;;;;;;;;4990956;28;19957;-75
2023/10/28 13:29:57;;;;;;;;;;;;;;;;;;4990329;28;19925;-75
2023/10/28 13:32:22;;;;;;;;;;;;;;;;;;4990642;28;20005;-74
2023/10/28 13:34:47;;;;;;;;;;;;;;;;;;5006349;28;19937;-73
2023/10/28 13:37:13;;;;;;;;;;;;;;;;;;4986279;28;20025;-75
2023/10/28 13:39:38;;;;;;;;;;;;;;;;;;4989064;28;20005;-73
2023/10/28 13:42:04;;;;;;;;;;;;;;;;;;4974890;28;19910;-73
2023/10/28 13:44:29;;;;;;;;;;;;;;;;;;4990422;28;19917;-74
2023/10/28 13:46:58;;;;;;;;;;;;;;;;;;4990692;28;19925;-74
2023/10/28 13:49:24;;;;;;;;;;;;;;;;;;4991737;28;19914;-74
2023/10/28 13:51:50;;;;;;;;;;;;;;;;;;4974557;28;19968;-74
2023/10/28 13:54:18;;;;;;;;;;;;;;;;;;4989398;28;19918;-74
2023/10/28 13:56:43;;;;;;;;;;;;;;;;;;5006790;28;19925;-73
2023/10/28 13:59:09;;;;;;;;;;;;;;;;;;4993614;28;19921;-74
2023/10/28 14:01:37;;;;;;;;;;;;;;;;;;4994128;28;19917;-72
2023/10/28 14:04:03;;;;;;;;;;;;;;;;;;5011924;28;19922;-74
2023/10/28 14:06:29;;;;;;;;;;;;;;;;;;4997409;28;19922;-74
2023/10/28 14:08:55;;;;;;;;;;;;;;;;;;4996039;28;19914;-73
2023/10/28 14:11:20;;;;;;;;;;;;;;;;;;5008312;28;20012;-73
2023/10/28 14:13:45;;;;;;;;;;;;;;;;;;4978545;28;19968;-73
2023/10/28 14:16:11;;;;;;;;;;;;;;;;;;4995400;28;19920;-72
2023/10/28 14:18:36;;;;;;;;;;;;;;;;;;5011163;28;20366;-74
2023/10/28 14:21:02;;;;;;;;;;;;;;;;;;4994518;28;19917;-73
2023/10/28 14:23:27;;;;;;;;;;;;;;;;;;4994731;28;20005;-73
2023/10/28 14:25:55;;;;;;;;;;;;;;;;;;4994486;28;20005;-73
2023/10/28 14:28:24;;;;;;;;;;;;;;;;;;5007050;28;20087;-72
2023/10/28 14:30:49;;;;;;;;;;;;;;;;;;5005512;28;19914;-72
2023/10/28 14:33:15;;;;;;;;;;;;;;;;;;4991202;28;19964;-73
2023/10/28 14:35:40;;;;;;;;;;;;;;;;;;4990874;28;19918;-72
2023/10/28 14:38:06;;;;;;;;;;;;;;;;;;4977401;28;19970;-73
2023/10/28 14:40:33;;;;;;;;;;;;;;;;;;4977786;28;20268;-73
2023/10/28 14:42:59;;;;;;;;;;;;;;;;;;4992908;28;19914;-73
2023/10/28 14:45:24;;;;;;;;;;;;;;;;;;4994625;28;20008;-73
2023/10/28 14:47:52;;;;;;;;;;;;;;;;;;4993351;28;19928;-72
2023/10/28 14:50:18;;;;;;;;;;;;;;;;;;5013253;28;19993;-74
2023/10/28 14:52:44;;;;;;;;;;;;;;;;;;5011550;28;19948;-73
2023/10/28 14:55:09;;;;;;;;;;;;;;;;;;4995347;28;19914;-73
2023/10/28 14:57:36;;;;;;;;;;;;;;;;;;4994390;28;19914;-73
2023/10/28 15:00:02;;;;;;;;;;;;;;;;;;4993947;28;19918;-73
2023/10/28 15:02:27;;;;;;;;;;;;;;;;;;4994979;28;19933;-73
2023/10/28 15:04:53;;;;;;;;;;;;;;;;;;4986691;28;19969;-73
2023/10/28 15:07:20;;;;;;;;;;;;;;;;;;4977485;28;19921;-74
2023/10/28 15:09:46;;;;;;;;;;;;;;;;;;4993940;28;19977;-74
2023/10/28 15:12:12;;;;;;;;;;;;;;;;;;4977797;28;19922;-73
2023/10/28 15:14:37;;;;;;;;;;;;;;;;;;4992634;28;19929;-74
2023/10/28 15:17:03;;;;;;;;;;;;;;;;;;4993482;28;19953;-74
2023/10/28 15:19:29;;;;;;;;;;;;;;;;;;4993257;28;20296;-75
2023/10/28 15:21:55;;;;;;;;;;;;;;;;;;4975520;28;19917;-74
2023/10/28 15:24:21;;;;;;;;;;;;;;;;;;4993065;28;19914;-75
2023/10/28 15:26:46;;;;;;;;;;;;;;;;;;4992888;28;19918;-73
2023/10/28 15:29:12;;;;;;;;;;;;;;;;;;4992812;28;20024;-73
2023/10/28 15:31:38;;;;;;;;;;;;;;;;;;4993003;28;20441;-73
2023/10/28 15:34:11;;;;;;;;;;;;;;;;;;4993096;28;19918;-74
2023/10/28 15:36:37;;;;;;;;;;;;;;;;;;4992827;28;20389;-74
2023/10/28 15:39:03;;;;;;;;;;;;;;;;;;5005802;28;19929;-74
2023/10/28 15:41:28;;;;;;;;;;;;;;;;;;4993236;28;20343;-74
2023/10/28 15:43:56;;;;;;;;;;;;;;;;;;4992115;28;19914;-75
2023/10/28 15:46:22;;;;;;;;;;;;;;;;;;4992697;28;19967;-74
2023/10/28 15:48:47;;;;;;;;;;;;;;;;;;4993797;28;20157;-74
2023/10/28 15:51:15;;;;;;;;;;;;;;;;;;4975998;28;19925;-74
2023/10/28 15:53:40;;;;;;;;;;;;;;;;;;4976547;28;20015;-74
2023/10/28 15:56:10;;;;;;;;;;;;;;;;;;4958818;28;19913;-74
2023/10/28 15:58:36;;;;;;;;;;;;;;;;;;4977020;28;19913;-74
2023/10/28 16:01:04;;;;;;;;;;;;;;;;;;4992764;28;19969;-74
2023/10/28 16:03:31;;;;;;;;;;;;;;;;;;4960904;28;19914;-75
2023/10/28 16:05:58;;;;;;;;;;;;;;;;;;4976698;28;19914;-75
2023/10/28 16:08:25;;;;;;;;;;;;;;;;;;4976286;28;19918;-74
2023/10/28 16:10:51;;;;;;;;;;;;;;;;;;4961173;28;20369;-75
2023/10/28 16:13:19;;;;;;;;;;;;;;;;;;4991374;28;19928;-73
2023/10/28 16:15:48;;;;;;;;;;;;;;;;;;4991080;28;20008;-74
2023/10/28 16:18:14;;;;;;;;;;;;;;;;;;5009009;28;19949;-74
2023/10/28 16:20:43;;;;;;;;;;;;;;;;;;4972425;28;20317;-74
2023/10/28 16:23:09;;;;;;;;;;;;;;;;;;4973064;28;20344;-73
2023/10/28 16:25:34;;;;;;;;;;;;;;;;;;4972492;28;19914;-74
2023/10/28 16:28:00;;;;;;;;;;;;;;;;;;4990832;28;20361;-73
2023/10/28 16:30:25;;;;;;;;;;;;;;;;;;4992296;28;19945;-73
2023/10/28 16:32:51;;;;;;;;;;;;;;;;;;4991684;28;19918;-72
2023/10/28 16:35:16;;;;;;;;;;;;;;;;;;4991915;28;20369;-73
2023/10/28 16:37:42;;;;;;;;;;;;;;;;;;4992444;28;19918;-73